createdAt,value
2022-10-18T00:01:07.010Z,14.00
2022-10-18T00:03:40.974Z,13.00
2022-10-18T00:06:12.044Z,14.00
2022-10-18T00:08:40.505Z,15.00
2022-10-18T00:11:08.721Z,15.00
2022-10-18T00:13:37.488Z,13.00
2022-10-18T00:16:09.576Z,16.33
2022-10-18T00:18:37.723Z,15.33
2022-10-18T00:21:12.335Z,13.00
2022-10-18T00:23:40.785Z,15.50
2022-10-18T00:26:09.049Z,13.33
2022-10-18T00:28:39.264Z,16.00
2022-10-18T00:31:19.392Z,16.00
2022-10-18T00:33:50.803Z,17.00
2022-10-18T00:36:19.393Z,17.00
2022-10-18T00:38:48.333Z,12.00
2022-10-18T00:41:19.075Z,11.50
2022-10-18T00:44:27.024Z,16.50
2022-10-18T00:47:16.553Z,16.00
2022-10-18T00:49:48.781Z,17.00
2022-10-18T00:52:18.044Z,15.00
2022-10-18T00:54:47.850Z,13.00
2022-10-18T00:57:16.126Z,13.67
2022-10-18T01:02:15.196Z,13.50
2022-10-18T01:04:43.613Z,12.00
2022-10-18T01:07:26.905Z,14.00
2022-10-18T01:10:25.999Z,14.00
2022-10-18T01:13:26.772Z,13.67
2022-10-18T01:18:36.029Z,15.50
2022-10-18T01:21:39.072Z,11.00
2022-10-18T01:24:31.483Z,17.50
2022-10-18T01:27:21.650Z,16.00
2022-10-18T01:30:02.239Z,16.33
2022-10-18T01:32:43.547Z,13.00
2022-10-18T01:35:15.431Z,13.00
2022-10-18T01:37:46.196Z,15.00
2022-10-18T01:40:17.620Z,14.00
2022-10-18T01:42:47.188Z,13.00
2022-10-18T01:45:16.482Z,14.00
2022-10-18T01:47:46.543Z,12.00
2022-10-18T01:50:14.737Z,12.00
2022-10-18T01:52:52.465Z,15.00
2022-10-18T01:55:26.878Z,13.00
2022-10-18T01:58:02.500Z,13.00
2022-10-18T02:00:39.345Z,11.00
2022-10-18T02:03:15.923Z,15.00
2022-10-18T02:05:57.156Z,13.00
2022-10-18T02:08:31.508Z,13.50
2022-10-18T02:11:07.635Z,13.00
2022-10-18T02:13:39.657Z,16.00
2022-10-18T02:16:13.857Z,13.00
2022-10-18T02:18:48.446Z,14.50
2022-10-18T02:21:18.844Z,15.00
2022-10-18T02:23:47.612Z,15.00
2022-10-18T02:26:16.388Z,18.50
2022-10-18T02:28:46.231Z,13.00
2022-10-18T02:31:49.261Z,14.00
2022-10-18T02:34:23.120Z,17.00
2022-10-18T02:36:57.115Z,14.00
2022-10-18T02:39:35.274Z,14.00
2022-10-18T02:42:08.314Z,13.00
2022-10-18T02:44:37.716Z,12.00
2022-10-18T02:47:07.404Z,15.00
2022-10-18T02:49:35.708Z,14.50
2022-10-18T02:52:04.400Z,13.50
2022-10-18T02:54:32.647Z,10.67
2022-10-18T02:57:00.818Z,12.75
2022-10-18T02:59:29.063Z,12.00
2022-10-18T03:01:57.355Z,12.00
2022-10-18T03:04:25.575Z,15.00
2022-10-18T03:06:53.920Z,16.00
2022-10-18T03:09:22.474Z,15.00
2022-10-18T03:11:50.696Z,13.33
2022-10-18T03:14:18.942Z,13.00
2022-10-18T03:16:47.033Z,13.50
2022-10-18T03:19:15.523Z,14.00
2022-10-18T03:21:43.863Z,12.00
2022-10-18T03:24:12.062Z,14.50
2022-10-18T03:26:40.251Z,14.67
2022-10-18T03:29:10.151Z,10.00
2022-10-18T03:31:38.542Z,13.33
2022-10-18T03:34:06.739Z,12.67
2022-10-18T03:36:34.994Z,8.00
2022-10-18T03:39:03.218Z,15.00
2022-10-18T03:41:31.441Z,13.00
2022-10-18T03:43:59.588Z,13.25
2022-10-18T03:46:27.619Z,13.00
2022-10-18T03:48:55.987Z,14.00
2022-10-18T03:51:24.197Z,16.00
2022-10-18T03:53:52.411Z,15.67
2022-10-18T03:56:20.625Z,13.50
2022-10-18T03:58:49.002Z,14.00
2022-10-18T04:01:17.171Z,14.50
2022-10-18T04:03:45.487Z,16.00
2022-10-18T04:06:13.936Z,15.00
2022-10-18T04:08:42.123Z,16.50
2022-10-18T04:11:11.326Z,15.00
2022-10-18T04:13:39.622Z,17.00
2022-10-18T04:16:07.813Z,18.00
2022-10-18T04:18:36.003Z,15.00
2022-10-18T04:21:04.395Z,17.00
2022-10-18T04:23:35.100Z,14.50
2022-10-18T04:26:07.643Z,18.00
2022-10-18T04:28:40.314Z,16.00
2022-10-18T04:31:08.862Z,16.00
2022-10-18T04:33:37.210Z,17.33
2022-10-18T04:36:05.641Z,14.00
2022-10-18T04:38:33.938Z,15.67
2022-10-18T04:41:02.146Z,11.00
2022-10-18T04:43:30.351Z,16.00
2022-10-18T04:45:58.831Z,17.50
2022-10-18T04:48:27.041Z,16.00
2022-10-18T04:50:55.187Z,14.33
2022-10-18T04:53:23.417Z,16.00
2022-10-18T04:55:51.836Z,13.00
2022-10-18T04:58:20.572Z,14.50
2022-10-18T05:00:48.872Z,14.50
2022-10-18T05:03:17.200Z,15.00
2022-10-18T05:06:03.107Z,18.00
2022-10-18T05:08:33.778Z,16.50
2022-10-18T05:11:02.357Z,18.00
2022-10-18T05:13:31.281Z,16.00
2022-10-18T05:16:00.440Z,18.00
2022-10-18T05:18:28.828Z,14.00
2022-10-18T05:20:57.241Z,16.00
2022-10-18T05:23:25.471Z,17.00
2022-10-18T05:25:54.477Z,17.00
2022-10-18T05:28:41.154Z,16.00
2022-10-18T05:31:11.214Z,15.00
2022-10-18T05:33:39.427Z,15.00
2022-10-18T05:36:08.026Z,13.00
2022-10-18T05:38:39.336Z,15.00
2022-10-18T05:41:07.607Z,16.00
2022-10-18T05:43:35.819Z,17.00
2022-10-18T05:46:07.203Z,14.50
2022-10-18T05:48:37.500Z,12.00
2022-10-18T05:51:05.973Z,12.33
2022-10-18T05:53:38.123Z,15.00
2022-10-18T05:56:07.661Z,17.00
2022-10-18T05:58:35.959Z,18.00
2022-10-18T06:01:05.591Z,16.00
2022-10-18T06:03:34.496Z,16.00
2022-10-18T06:06:06.738Z,16.67
2022-10-18T06:08:35.502Z,15.00
2022-10-18T06:11:08.488Z,13.00
2022-10-18T06:13:41.343Z,17.00
2022-10-18T06:16:10.976Z,15.00
2022-10-18T06:18:39.357Z,17.50
2022-10-18T06:21:08.954Z,18.00
2022-10-18T06:23:37.255Z,22.00
2022-10-18T06:26:07.472Z,19.50
2022-10-18T06:28:36.679Z,20.00
2022-10-18T06:31:06.084Z,22.00
2022-10-18T06:33:35.708Z,23.00
2022-10-18T06:36:07.184Z,21.00
2022-10-18T06:38:35.924Z,20.00
2022-10-18T06:41:04.461Z,14.00
2022-10-18T06:43:32.665Z,20.00
2022-10-18T06:46:07.050Z,21.50
2022-10-18T06:48:36.432Z,23.00
2022-10-18T06:51:06.714Z,18.00
2022-10-18T06:53:43.801Z,19.00
2022-10-18T06:56:16.881Z,22.00
2022-10-18T06:58:45.246Z,21.33
2022-10-18T07:01:16.307Z,19.50
2022-10-18T07:03:46.361Z,19.00
2022-10-18T07:06:17.273Z,20.00
2022-10-18T07:08:46.152Z,16.50
2022-10-18T07:11:16.991Z,20.50
2022-10-18T07:13:45.858Z,17.00
2022-10-18T07:16:18.163Z,20.00
2022-10-18T07:18:50.168Z,22.00
2022-10-18T07:21:21.085Z,17.00
2022-10-18T07:23:49.892Z,19.50
2022-10-18T07:26:31.296Z,12.00
2022-10-18T07:29:06.778Z,15.50
2022-10-18T07:31:35.644Z,20.00
2022-10-18T07:34:08.992Z,15.00
2022-10-18T07:36:37.584Z,18.00
2022-10-18T07:39:06.092Z,18.00
2022-10-18T07:41:34.644Z,19.00
2022-10-18T07:44:04.251Z,22.00
2022-10-18T07:46:32.812Z,17.50
2022-10-18T07:49:01.230Z,17.75
2022-10-18T07:51:32.583Z,17.00
2022-10-18T07:54:00.722Z,16.00
2022-10-18T07:56:29.046Z,14.00
2022-10-18T07:58:57.462Z,14.00
2022-10-18T08:01:26.038Z,18.00
2022-10-18T08:03:54.451Z,17.50
2022-10-18T08:06:23.592Z,21.67
2022-10-18T08:08:52.512Z,14.00
2022-10-18T08:11:23.203Z,18.00
2022-10-18T08:13:52.330Z,15.00
2022-10-18T08:16:22.976Z,15.67
2022-10-18T08:18:51.476Z,21.00
2022-10-18T08:21:20.840Z,19.00
2022-10-18T08:23:49.721Z,17.50
2022-10-18T08:26:20.109Z,16.00
2022-10-18T08:28:54.376Z,17.00
2022-10-18T08:31:31.890Z,18.50
2022-10-18T08:34:00.368Z,16.00
2022-10-18T08:36:28.750Z,18.50
2022-10-18T08:38:57.045Z,15.00
2022-10-18T08:41:37.407Z,14.00
2022-10-18T08:44:18.038Z,18.00
2022-10-18T08:46:49.474Z,16.00
2022-10-18T08:49:26.782Z,12.00
2022-10-18T08:51:56.799Z,15.33
2022-10-18T08:54:28.109Z,15.00
2022-10-18T08:57:02.168Z,18.00
2022-10-18T08:59:40.947Z,16.00
2022-10-18T09:02:44.649Z,14.00
2022-10-18T09:05:31.026Z,12.00
2022-10-18T09:08:18.328Z,10.00
2022-10-18T09:10:49.586Z,17.00
2022-10-18T09:13:42.643Z,14.00
2022-10-18T09:16:17.038Z,16.00
2022-10-18T09:18:57.679Z,17.00
2022-10-18T09:21:47.127Z,17.33
2022-10-18T09:24:22.150Z,12.00
2022-10-18T09:27:00.525Z,11.50
2022-10-18T09:29:32.674Z,16.33
2022-10-18T09:32:12.318Z,15.67
2022-10-18T09:34:50.882Z,16.00
2022-10-18T09:37:20.661Z,14.50
2022-10-18T09:39:49.926Z,15.00
2022-10-18T09:42:29.011Z,12.50
2022-10-18T09:45:25.942Z,14.50
2022-10-18T09:48:14.573Z,13.00
2022-10-18T09:51:15.255Z,13.00
2022-10-18T09:54:00.330Z,13.50
2022-10-18T09:56:50.669Z,14.00
2022-10-18T09:59:44.294Z,12.00
2022-10-18T10:02:23.936Z,13.00
2022-10-18T10:04:54.428Z,11.00
2022-10-18T10:07:35.123Z,12.00
2022-10-18T10:10:15.750Z,17.00
2022-10-18T10:12:44.465Z,13.50
2022-10-18T10:15:31.214Z,12.00
2022-10-18T10:18:31.768Z,14.00
2022-10-18T10:21:08.647Z,13.00
2022-10-18T10:24:07.748Z,13.00
2022-10-18T10:26:38.988Z,12.00
2022-10-18T10:29:45.131Z,10.50
2022-10-18T10:32:15.147Z,14.50
2022-10-18T10:34:44.828Z,8.00
2022-10-18T10:37:35.640Z,11.00
2022-10-18T10:40:19.271Z,10.00
2022-10-18T10:43:18.340Z,11.00
2022-10-18T10:46:20.885Z,10.00
2022-10-18T10:49:13.932Z,10.00
2022-10-18T10:51:44.045Z,12.00
2022-10-18T10:54:21.657Z,12.00
2022-10-18T10:56:59.349Z,10.00
2022-10-18T11:41:46.121Z,7.00
2022-10-18T11:44:37.323Z,6.33
2022-10-18T11:47:18.707Z,7.00
2022-10-18T11:50:19.749Z,5.00
2022-10-18T11:52:55.506Z,7.00
2022-10-18T11:55:56.032Z,6.50
2022-10-18T11:58:26.868Z,6.33
2022-10-18T12:00:56.896Z,6.00
2022-10-18T12:04:01.626Z,8.00
2022-10-18T12:06:33.892Z,8.00
2022-10-18T12:09:08.213Z,4.75
2022-10-18T12:11:45.472Z,7.50
2022-10-18T12:14:21.267Z,6.33
2022-10-18T12:16:53.610Z,6.00
2022-10-18T12:19:27.345Z,4.00
2022-10-18T12:22:08.201Z,5.00
2022-10-18T12:24:35.760Z,6.00
2022-10-18T12:27:03.629Z,8.50
2022-10-18T12:30:01.915Z,8.50
2022-10-18T12:32:34.598Z,7.50
2022-10-18T12:35:06.281Z,9.00
2022-10-18T12:38:00.691Z,5.00
2022-10-18T12:40:37.715Z,7.50
2022-10-18T12:43:17.980Z,7.00
2022-10-18T12:45:57.076Z,6.00
2022-10-18T12:48:30.196Z,6.67
2022-10-18T12:51:19.225Z,7.00
2022-10-18T12:53:57.167Z,6.50
2022-10-18T12:56:41.620Z,6.00
2022-10-18T12:59:15.021Z,7.00
2022-10-18T13:02:05.105Z,8.00
2022-10-18T13:04:33.178Z,6.00
2022-10-18T13:07:21.330Z,8.67
2022-10-18T13:10:10.399Z,7.33
2022-10-18T13:12:43.389Z,8.00
2022-10-18T13:15:41.656Z,9.00
2022-10-18T13:18:08.713Z,4.00
2022-10-18T13:20:45.826Z,7.00
2022-10-18T13:23:49.906Z,8.00
2022-10-18T13:26:23.604Z,8.00
2022-10-18T13:29:23.649Z,8.00
2022-10-18T13:32:05.121Z,7.00
2022-10-18T13:34:35.037Z,6.00
2022-10-18T13:37:25.446Z,8.00
2022-10-18T13:40:30.363Z,8.00
2022-10-18T13:42:57.249Z,6.00
2022-10-18T13:45:33.572Z,7.00
2022-10-18T13:48:36.054Z,8.33
2022-10-18T13:51:26.958Z,6.50
2022-10-18T13:54:08.341Z,7.00
2022-10-18T13:56:38.356Z,5.00
2022-10-18T13:59:26.345Z,8.50
2022-10-18T14:02:12.531Z,6.33
2022-10-18T14:04:54.751Z,8.00
2022-10-18T14:07:29.541Z,4.00
2022-10-18T14:09:59.497Z,10.00
2022-10-18T14:12:31.200Z,6.50
2022-10-18T14:15:13.013Z,6.00
2022-10-18T14:17:45.164Z,10.00
2022-10-18T14:20:29.971Z,10.00
2022-10-18T14:23:20.014Z,8.00
2022-10-18T14:25:47.676Z,7.50
2022-10-18T14:28:31.571Z,9.00
2022-10-18T14:31:12.798Z,9.00
2022-10-18T14:33:46.401Z,8.00
2022-10-18T14:36:19.501Z,7.00
2022-10-18T14:38:55.867Z,10.00
2022-10-18T14:41:25.535Z,11.00
2022-10-18T14:43:54.507Z,12.00
2022-10-18T14:46:30.155Z,7.00
2022-10-18T14:49:01.254Z,11.00
2022-10-18T14:51:32.928Z,10.00
2022-10-18T14:54:00.618Z,10.00
2022-10-18T14:56:30.797Z,10.50
2022-10-18T14:59:01.841Z,8.00
2022-10-18T15:01:31.704Z,9.00
2022-10-18T15:04:09.654Z,9.00
2022-10-18T15:06:36.522Z,9.00
2022-10-18T15:09:04.272Z,10.00
2022-10-18T15:11:31.516Z,8.00
2022-10-18T15:14:02.778Z,10.50
2022-10-18T15:16:32.370Z,11.00
2022-10-18T15:19:01.058Z,13.00
2022-10-18T15:21:28.724Z,11.00
2022-10-18T15:24:28.747Z,11.00
2022-10-18T15:26:59.781Z,11.00
2022-10-18T15:29:32.163Z,10.00
2022-10-18T15:33:10.173Z,11.00
2022-10-18T15:38:23.110Z,7.00
2022-10-18T15:43:22.731Z,11.00
2022-10-18T15:45:53.884Z,11.00
2022-10-18T15:50:53.601Z,14.00
2022-10-18T15:53:20.658Z,15.00
2022-10-18T15:55:57.678Z,17.00
2022-10-18T15:58:45.267Z,16.00
2022-10-18T16:06:13.382Z,14.00
2022-10-18T16:08:45.408Z,16.00
2022-10-18T16:11:20.678Z,13.00
2022-10-18T16:13:48.238Z,15.50
2022-10-18T16:16:21.429Z,14.00
2022-10-18T16:18:48.611Z,13.00
2022-10-18T16:21:36.585Z,12.00
2022-10-18T16:24:04.797Z,13.50
2022-10-18T16:26:31.970Z,16.50
2022-10-18T16:28:59.804Z,15.00
2022-10-18T16:31:29.626Z,10.50
2022-10-18T16:33:57.081Z,12.00
2022-10-18T16:36:29.052Z,13.00
2022-10-18T16:38:58.556Z,12.00
2022-10-18T16:43:52.749Z,13.00
2022-10-18T16:51:15.843Z,9.00
2022-10-18T16:53:43.810Z,12.00
2022-10-18T16:58:45.691Z,11.00
2022-10-18T17:03:44.095Z,12.50
2022-10-18T17:06:25.265Z,11.00
2022-10-18T17:08:53.238Z,10.50
2022-10-18T17:13:47.642Z,9.00
2022-10-18T17:18:57.389Z,11.00
2022-10-18T17:23:51.700Z,11.00
2022-10-18T17:26:29.653Z,8.00
2022-10-18T17:29:03.743Z,12.00
2022-10-18T17:31:31.998Z,13.00
2022-10-18T17:34:01.094Z,11.50
2022-10-18T17:36:29.295Z,3.00
2022-10-18T17:38:56.726Z,12.00
2022-10-18T17:41:23.581Z,11.00
2022-10-18T17:43:50.702Z,10.00
2022-10-18T17:46:19.201Z,11.00
2022-10-18T17:51:16.061Z,12.00
2022-10-18T17:53:43.520Z,11.00
2022-10-18T17:56:11.500Z,10.50
2022-10-18T17:58:38.636Z,12.00
2022-10-18T18:01:23.928Z,11.00
2022-10-18T18:03:56.592Z,10.50
2022-10-18T18:06:38.803Z,12.00
2022-10-18T18:11:38.837Z,12.00
2022-10-18T18:16:38.262Z,11.00
2022-10-18T18:19:09.716Z,11.50
2022-10-18T18:21:37.892Z,10.50
2022-10-18T18:24:05.238Z,10.00
2022-10-18T18:26:33.513Z,11.00
2022-10-18T18:31:38.783Z,10.50
2022-10-18T18:34:10.024Z,13.00
2022-10-18T18:36:37.267Z,12.50
2022-10-18T18:39:05.341Z,14.00
2022-10-18T18:44:01.838Z,15.00
2022-10-18T18:46:32.724Z,12.00
2022-10-18T18:48:59.573Z,13.00
2022-10-18T18:51:26.518Z,12.00
2022-10-18T18:53:53.566Z,12.50
2022-10-18T18:58:54.469Z,14.00
2022-10-18T19:01:23.945Z,14.00
2022-10-18T19:06:25.352Z,14.00
2022-10-18T19:09:03.924Z,11.00
2022-10-18T19:11:37.630Z,10.00
2022-10-18T19:16:40.585Z,11.50
2022-10-18T19:21:52.850Z,10.00
2022-10-18T19:24:21.537Z,12.50
2022-10-18T19:27:00.151Z,9.00
2022-10-18T19:29:35.215Z,12.00
2022-10-18T19:32:04.781Z,11.00
2022-10-18T19:34:33.859Z,11.00
2022-10-18T19:39:33.210Z,10.00
2022-10-18T19:42:02.919Z,11.00
2022-10-18T19:44:31.914Z,13.00
2022-10-18T19:46:59.063Z,11.00
2022-10-18T19:49:28.261Z,10.00
2022-10-18T19:51:56.159Z,11.00
2022-10-18T19:54:23.280Z,10.50
2022-10-18T19:59:17.579Z,13.00
2022-10-18T20:01:45.274Z,11.00
2022-10-18T20:04:13.009Z,10.00
2022-10-18T20:09:08.553Z,10.50
2022-10-18T20:11:35.893Z,12.00
2022-10-18T20:14:05.297Z,10.00
2022-10-18T20:16:33.291Z,9.00
2022-10-18T20:21:31.241Z,10.00
2022-10-18T20:23:58.302Z,9.00
2022-10-18T20:26:25.253Z,9.00
2022-10-18T20:28:57.938Z,9.00
2022-10-18T20:31:27.648Z,8.00
2022-10-18T20:33:59.964Z,9.00
2022-10-18T20:36:27.980Z,9.00
2022-10-18T20:38:55.439Z,6.00
2022-10-18T20:41:30.989Z,12.00
2022-10-18T20:46:34.924Z,10.00
2022-10-18T20:49:02.480Z,9.00
2022-10-18T20:51:29.419Z,8.50
2022-10-18T20:53:56.728Z,10.00
2022-10-18T20:56:28.529Z,5.00
2022-10-18T20:58:56.823Z,7.00
2022-10-18T21:01:31.420Z,8.00
2022-10-18T21:04:01.041Z,7.50
2022-10-18T21:09:01.310Z,8.00
2022-10-18T21:11:30.695Z,8.00
2022-10-18T21:14:02.135Z,8.00
2022-10-18T21:16:33.998Z,9.00
2022-10-18T21:19:12.822Z,5.00
2022-10-18T21:21:42.231Z,9.00
2022-10-18T21:24:10.657Z,9.00
2022-10-18T21:26:37.653Z,9.00
2022-10-18T21:29:05.293Z,7.00
2022-10-18T21:31:38.677Z,6.00
2022-10-18T21:34:09.767Z,7.00
2022-10-18T21:36:37.006Z,8.00
2022-10-18T21:41:31.717Z,8.00
2022-10-18T21:43:59.076Z,6.00
2022-10-18T21:48:55.835Z,8.00
2022-10-18T21:51:25.195Z,6.50
2022-10-18T21:53:54.537Z,9.00
2022-10-18T21:58:54.688Z,7.00
2022-10-18T22:01:33.758Z,7.00
2022-10-18T22:04:03.114Z,7.50
2022-10-18T22:06:33.285Z,9.00
2022-10-18T22:09:03.348Z,9.50
2022-10-18T22:11:37.662Z,6.00
2022-10-18T22:14:05.122Z,6.50
2022-10-18T22:16:32.172Z,8.00
2022-10-18T22:19:01.266Z,8.50
2022-10-18T22:21:29.243Z,8.00
2022-10-18T22:26:28.942Z,9.00
2022-10-18T22:28:58.832Z,7.00
2022-10-18T22:31:29.102Z,8.00
2022-10-18T22:33:58.611Z,5.00
2022-10-18T22:36:26.478Z,9.00
2022-10-18T22:38:54.058Z,6.50
2022-10-18T22:41:21.084Z,8.00
2022-10-18T22:46:17.027Z,6.00
2022-10-18T22:51:11.865Z,7.50
2022-10-18T22:53:39.704Z,8.00
2022-10-18T22:58:33.898Z,7.50
2022-10-18T23:01:09.555Z,7.00
2022-10-18T23:03:37.318Z,7.00
2022-10-18T23:06:05.286Z,6.67
2022-10-18T23:10:59.701Z,5.50
2022-10-18T23:13:27.151Z,8.00
2022-10-18T23:16:04.291Z,8.00
2022-10-18T23:18:32.367Z,7.00
2022-10-18T23:21:05.395Z,8.00
2022-10-18T23:23:36.547Z,6.00
2022-10-18T23:28:39.122Z,4.00
2022-10-18T23:31:10.377Z,7.50
2022-10-18T23:33:37.835Z,5.00
2022-10-18T23:36:06.286Z,7.50
2022-10-18T23:38:34.184Z,7.50
2022-10-18T23:45:54.513Z,8.50
2022-10-18T23:50:48.199Z,6.00
